Time;durP1;ratioP1;P1;durP2;ratioP2;P2;SDS_P1;SDS_P2;PMS_P1;PMS_P2;Temp;Humidity;BMP_temperature;BMP_pressure;BME280_temperature;BME280_humidity;BME280_pressure;Samples;Min_cycle;Max_cycle;Signal;HPM_P1;HPM_P2
2023/10/07 00:02:30;;;;;;;5.90;2.30;;;;;;;12.82;72.16;99079.52;224923;1287;138658;-73
2023/10/07 00:08:18;;;;;;;;;;;;;;;;;;;;;
2023/10/07 00:14:28;;;;;;;;;;;;;;;;;;;;;
2023/10/07 00:20:35;;;;;;;;;;;;;;;;;;;;;
2023/10/07 00:26:46;;;;;;;;;;;;;;;;;;;;;
2023/10/07 00:32:59;;;;;;;5.60;2.60;;;;;;;12.78;72.07;99050.28;225163;1283;138452;-73
2023/10/07 00:45:55;;;;;;;3.60;2.40;;;;;;;12.77;71.85;99038.20;225260;1283;138398;-74
2023/10/07 00:51:36;;;;;;;5.20;2.50;;;;;;;12.78;71.81;99034.08;225212;1283;138480;-74
2023/10/07 00:58:27;;;;;;;7.20;2.80;;;;;;;12.77;71.79;99024.45;225214;1283;138507;-74
2023/10/07 01:04:16;;;;;;;5.00;2.50;;;;;;;12.73;71.81;99015.27;225146;1276;138344;-73
2023/10/07 01:09:39;;;;;;;6.10;2.80;;;;;;;12.70;71.57;99004.08;225298;1283;138533;-73
2023/10/07 01:21:50;;;;;;;4.20;2.60;;;;;;;12.65;71.68;98993.11;224670;1290;138605;-74
2023/10/07 01:27:16;;;;;;;5.40;2.30;;;;;;;12.63;71.78;98981.67;224657;1286;138704;-74
2023/10/07 01:33:02;;;;;;;6.40;2.70;;;;;;;12.61;71.71;98972.84;224650;1283;138736;-74
2023/10/07 01:45:39;;;;;;;7.60;2.80;;;;;;;12.58;71.83;98967.96;223606;1283;138821;-74
2023/10/07 01:50:24;;;;;;;5.20;2.30;;;;;;;12.58;71.80;98958.38;225154;1283;138545;-74
2023/10/07 01:56:28;;;;;;;;;;;;;;;;;;;;;
2023/10/07 02:02:04;;;;;;;5.90;2.60;;;;;;;12.63;71.86;98958.06;225147;1283;138648;-73
2023/10/07 02:08:00;;;;;;;;;;;;;;;;;;;;;
2023/10/07 02:13:18;;;;;;;7.10;2.70;;;;;;;12.76;71.72;98943.65;225240;1283;138521;-73
2023/10/07 02:19:32;;;;;;;6.50;2.80;;;;;;;12.83;71.54;98940.61;225069;1286;138671;-73
2023/10/07 02:30:39;;;;;;;8.10;4.30;;;;;;;12.91;71.45;98921.56;225025;1285;138428;-73
2023/10/07 02:36:32;;;;;;;8.20;5.20;;;;;;;12.92;71.52;98912.13;225150;1285;23302;-73
2023/10/07 02:42:35;;;;;;;5.90;3.20;;;;;;;12.94;71.36;98906.29;225205;1267;138662;-74
2023/10/07 02:48:05;;;;;;;5.40;2.80;;;;;;;12.94;71.27;98914.17;225452;1283;22568;-74
2023/10/07 02:53:58;;;;;;;6.70;3.20;;;;;;;12.93;71.28;98908.73;225384;1283;22551;-73
2023/10/07 03:00:11;;;;;;;7.20;3.20;;;;;;;12.91;71.39;98914.93;225374;1283;22590;-73
2023/10/07 03:05:59;;;;;;;;;;;;;;;;;;;;;
2023/10/07 03:12:23;;;;;;;5.30;3.30;;;;;;;12.91;71.32;98910.38;225296;1283;24309;-73
2023/10/07 03:17:53;;;;;;;;;;;;;;;;;;;;;
2023/10/07 03:24:07;;;;;;;5.30;3.00;;;;;;;12.89;71.53;98903.57;225264;1282;138161;-73
2023/10/07 03:29:57;;;;;;;5.90;2.70;;;;;;;12.88;71.42;98906.91;225287;1283;138233;-74
2023/10/07 03:41:40;;;;;;;6.00;2.90;;;;;;;12.88;71.61;98909.39;225195;1283;138345;-74
2023/10/07 03:47:11;;;;;;;6.00;2.90;;;;;;;12.87;71.48;98896.63;224924;1287;138558;-74
2023/10/07 03:53:16;;;;;;;;;;;;;;;;;;;;;
2023/10/07 03:58:38;;;;;;;6.40;3.30;;;;;;;12.83;71.72;98887.02;224465;1292;138477;-74
2023/10/07 04:04:11;;;;;;;9.40;3.80;;;;;;;12.82;71.81;98884.77;224151;1292;138455;-73
2023/10/07 04:09:51;;;;;;;7.00;3.70;;;;;;;12.82;71.69;98889.66;224611;1287;138539;-73
2023/10/07 04:16:02;;;;;;;;;;;;;;;;;;;;;
2023/10/07 04:21:14;;;;;;;6.30;3.20;;;;;;;12.88;71.53;98885.57;224844;1287;138673;-74
2023/10/07 04:26:22;;;;;;;7.00;3.60;;;;;;;12.90;71.71;98883.86;224878;1283;139498;-75
2023/10/07 04:32:19;;;;;;;5.50;3.30;;;;;;;12.92;71.48;98881.94;224898;1287;138541;-74
2023/10/07 04:38:52;;;;;;;6.10;3.30;;;;;;;12.94;71.52;98872.45;225238;1283;138479;-74
2023/10/07 04:43:55;;;;;;;8.90;4.10;;;;;;;12.99;71.40;98866.40;225131;1283;138435;-74
2023/10/07 04:55:11;;;;;;;8.00;4.10;;;;;;;13.05;71.45;98880.34;225059;1283;138548;-72
2023/10/07 05:00:35;;;;;;;6.30;3.30;;;;;;;13.12;71.26;98885.95;225338;1280;22543;-74
2023/10/07 05:05:59;;;;;;;;;;;;;;;;;;;;;
2023/10/07 05:11:50;;;;;;;6.10;4.00;;;;;;;13.23;71.32;98886.42;225247;1283;138301;-74
2023/10/07 05:17:02;;;;;;;7.90;3.50;;;;;;;13.27;71.12;98893.14;225230;1283;138825;-74
2023/10/07 05:22:15;;;;;;;7.70;4.00;;;;;;;13.31;71.08;98883.03;225222;1283;138462;-74
2023/10/07 05:27:56;;;;;;;7.00;3.80;;;;;;;13.35;70.87;98886.55;225213;1283;138488;-73
2023/10/07 05:33:34;;;;;;;8.40;3.90;;;;;;;13.43;70.98;98885.19;225180;1283;138441;-73
2023/10/07 05:38:51;;;;;;;8.00;3.60;;;;;;;13.47;70.50;98895.91;225293;1283;138473;-74
2023/10/07 05:44:47;;;;;;;;;;;;;;;;;;;;;
2023/10/07 05:50:41;;;;;;;7.80;4.10;;;;;;;13.58;70.61;98898.18;225122;1283;138403;-77
2023/10/07 05:56:17;;;;;;;;;;;;;;;;;;;;;
2023/10/07 06:02:05;;;;;;;9.60;4.10;;;;;;;13.71;70.36;98903.61;225242;1283;138642;-74
2023/10/07 06:07:21;;;;;;;7.20;4.10;;;;;;;13.75;70.32;98911.09;225149;1283;138436;-74
2023/10/07 06:12:52;;;;;;;7.50;3.80;;;;;;;13.78;70.39;98914.29;225360;1283;24210;-73
2023/10/07 06:18:45;;;;;;;7.00;4.20;;;;;;;13.83;70.22;98913.36;225391;1283;23063;-75
2023/10/07 06:24:01;;;;;;;8.00;4.30;;;;;;;13.96;70.03;98917.98;225378;1283;25246;-75
2023/10/07 06:29:31;;;;;;;;;;;;;;;;;;;;;
2023/10/07 06:35:18;;;;;;;7.20;3.60;;;;;;;14.28;69.54;98919.02;225288;1283;138304;-75
2023/10/07 06:40:35;;;;;;;8.20;4.50;;;;;;;14.35;69.45;98916.73;225252;1269;138433;-73
2023/10/07 06:46:44;;;;;;;8.70;4.00;;;;;;;14.45;69.35;98917.90;225190;1283;138362;-74
2023/10/07 06:52:33;;;;;;;;;;;;;;;;;;;;;
2023/10/07 06:57:42;;;;;;;6.80;3.90;;;;;;;14.70;69.02;98914.36;225255;1264;138411;-74
2023/10/07 07:02:57;;;;;;;10.60;5.30;;;;;;;14.80;68.82;98910.73;225269;1281;138500;-75
2023/10/07 07:08:22;;;;;;;8.60;3.80;;;;;;;14.94;69.15;98917.83;225250;1281;138567;-75
2023/10/07 07:13:40;;;;;;;;;;;;;;;;;;;;;
2023/10/07 07:18:58;;;;;;;7.30;4.30;;;;;;;15.17;68.60;98909.79;225385;1278;22595;-76
2023/10/07 07:24:29;;;;;;;8.60;4.90;;;;;;;15.26;68.53;98906.64;224832;1278;22545;-73
2023/10/07 07:30:00;;;;;;;8.40;4.50;;;;;;;15.35;68.65;98905.05;224843;1282;138285;-73
2023/10/07 07:37:02;;;;;;;7.40;4.20;;;;;;;15.48;68.20;98906.77;224886;1277;137815;-76
2023/10/07 07:42:26;;;;;;;;;;;;;;;;;;;;;
2023/10/07 07:47:30;;;;;;;7.80;4.70;;;;;;;15.65;67.99;98906.25;224911;1282;138417;-73
2023/10/07 07:53:02;;;;;;;;;;;;;;;;;;;;;
2023/10/07 07:58:57;;;;;;;9.60;4.30;;;;;;;15.71;67.78;98912.16;225089;1268;138250;-75
2023/10/07 08:04:48;;;;;;;8.90;4.60;;;;;;;15.78;67.90;98926.05;225111;1279;138528;-77
2023/10/07 08:11:18;;;;;;;8.70;4.50;;;;;;;15.98;67.75;98920.39;225179;1265;138414;-76
2023/10/07 08:17:00;;;;;;;10.60;5.60;;;;;;;16.15;67.43;98911.86;225052;1275;138448;-72
2023/10/07 08:23:40;;;;;;;7.80;4.60;;;;;;;16.24;67.16;98910.21;225203;1281;138598;-74
2023/10/07 08:37:08;;;;;;;8.70;4.40;;;;;;;16.67;66.83;98887.99;225359;1271;24306;-77
2023/10/07 08:49:48;;;;;;;9.30;4.00;;;;;;;16.98;66.40;98886.08;224903;1278;143397;-76
2023/10/07 08:55:35;;;;;;;5.20;3.50;;;;;;;17.17;66.43;98883.16;225117;1278;137810;-77
2023/10/07 09:01:41;;;;;;;;;;;;;;;;;;;;;
2023/10/07 09:08:19;;;;;;;7.00;4.40;;;;;;;17.60;65.91;98870.96;224484;1279;137760;-79
2023/10/07 09:14:46;;;;;;;;;;;;;;;;;;;;;
2023/10/07 09:20:52;;;;;;;12.70;8.90;;;;;;;18.02;64.96;98870.49;224626;1284;137905;-76
2023/10/07 09:34:09;;;;;;;;;;;;;;;;;;;;;
2023/10/07 09:47:10;;;;;;;5.80;3.70;;;;;;;19.08;64.46;98860.23;225297;1279;137656;-78
2023/10/07 09:53:15;;;;;;;7.40;3.80;;;;;;;19.48;63.82;98859.15;225341;1281;137696;-74
2023/10/07 09:59:39;;;;;;;;;;;;;;;;;;;;;
2023/10/07 10:06:25;;;;;;;4.60;3.00;;;;;;;20.14;62.17;98857.75;225060;1279;137994;-75
2023/10/07 10:12:23;;;;;;;5.50;3.30;;;;;;;20.50;60.29;98844.88;224883;1280;137588;-74
2023/10/07 10:18:31;;;;;;;6.70;3.50;;;;;;;20.76;59.06;98834.85;224933;1279;137718;-73
2023/10/07 10:23:51;;;;;;;4.30;3.10;;;;;;;21.05;59.14;98831.00;224947;1283;137660;-74
2023/10/07 10:29:16;;;;;;;6.10;3.60;;;;;;;21.34;58.78;98814.83;225007;1281;138991;-74
2023/10/07 10:34:45;;;;;;;5.90;3.10;;;;;;;21.57;58.77;98808.23;224953;1282;138577;-72
2023/10/07 10:40:54;;;;;;;5.60;3.20;;;;;;;21.67;57.47;98806.41;224920;1283;137714;-74
2023/10/07 10:46:27;;;;;;;6.30;4.70;;;;;;;21.73;57.24;98799.04;225108;1275;137831;-74
2023/10/07 10:52:23;;;;;;;8.20;5.10;;;;;;;21.81;57.08;98794.67;224772;1280;137799;-73
2023/10/07 10:58:37;;;;;;;;;;;;;;;;;;;;;
2023/10/07 11:04:37;;;;;;;6.00;3.70;;;;;;;21.61;56.57;98781.80;223771;1283;137823;-80
2023/10/07 11:10:41;;;;;;;;;;;;;;;;;;;;;
2023/10/07 11:16:32;;;;;;;5.70;3.20;;;;;;;21.21;57.14;98782.46;224351;1290;137726;-80
2023/10/07 11:22:35;;;;;;;;;;;;;;;;;;;;;
2023/10/07 11:28:17;;;;;;;4.90;3.60;;;;;;;20.92;58.33;98769.73;225327;1283;137859;-79
2023/10/07 11:34:23;;;;;;;;;;;;;;;;;;;;;
2023/10/07 11:47:12;;;;;;;;;;;;;;;;;;;;;
2023/10/07 11:59:46;;;;;;;;;;;;;;;19.89;59.72;98743.14;225528;1283;137994;-79
2023/10/07 12:06:04;;;;;;;;;;;;;;;;;;;;;
2023/10/07 12:13:28;;;;;;;;;;;;;;;;;;;;;
2023/10/07 12:20:25;;;;;;;;;;;;;;;;;;;;;
2023/10/07 12:26:55;;;;;;;;;;;;;;;;;;;;;
2023/10/07 12:33:42;;;;;;;7.20;3.50;;;;;;;19.47;60.63;98732.59;225178;1283;137812;-79
2023/10/07 12:54:15;;;;;;;8.10;4.40;;;;;;;19.09;62.08;98749.42;225277;1271;137558;-79
2023/10/07 13:00:31;;;;;;;5.70;3.90;;;;;;;18.99;62.59;98750.02;225486;1283;137788;-79
2023/10/07 13:06:42;;;;;;;7.10;4.20;;;;;;;18.90;63.00;98748.10;225548;1283;22541;-79
2023/10/07 13:12:49;;;;;;;;;;;;;;;;;;;;;
2023/10/07 13:19:26;;;;;;;;;;;;;;;;;;;;;
2023/10/07 13:33:36;;;;;;;6.10;3.60;;;;;;;18.27;66.71;98733.77;225343;1283;138140;-79
2023/10/07 13:39:53;;;;;;;;;;;;;;;;;;;;;
2023/10/07 13:46:34;;;;;;;5.40;3.80;;;;;;;17.42;69.85;98733.73;221444;1283;138604;-78
2023/10/07 13:52:39;;;;;;;;;;;;;;;;;;;;;
2023/10/07 13:59:51;;;;;;;5.90;4.10;;;;;;;16.97;71.92;98719.98;225323;1282;138406;-78
2023/10/07 14:06:27;;;;;;;;;;;;;;;;;;;;;
2023/10/07 14:19:06;;;;;;;;;;;;;;;;;;;;;
2023/10/07 14:25:34;;;;;;;;;;;;;;;;;;;;;
2023/10/07 14:31:56;;;;;;;;;;;;;;;;;;;;;
2023/10/07 14:38:40;;;;;;;;;;;;;;;;;;;;;
2023/10/07 14:44:59;;;;;;;;;;;;;;;;;;;;;
2023/10/07 14:51:32;;;;;;;;;;;;;;;;;;;;;
2023/10/07 14:58:29;;;;;;;;;;;;;;;;;;;;;
2023/10/07 15:05:33;;;;;;;7.80;5.00;;;;;;;16.52;76.65;98655.88;224957;1283;138561;-78
2023/10/07 15:26:37;;;;;;;5.90;4.00;;;;;;;16.59;76.72;98636.10;225454;1282;138587;-78
2023/10/07 15:33:08;;;;;;;;;;;;;;;;;;;;;
2023/10/07 15:38:56;;;;;;;7.00;4.20;;;;;;;16.78;76.35;98624.58;225374;1282;138484;-79
2023/10/07 15:51:46;;;;;;;5.60;3.80;;;;;;;16.95;75.83;98615.04;225370;1282;138525;-79
2023/10/07 15:58:32;;;;;;;4.80;3.10;;;;;;;17.09;75.12;98608.55;225131;1282;138599;-78
2023/10/07 16:05:03;;;;;;;;;;;;;;;;;;;;;
2023/10/07 16:11:02;;;;;;;;;;;;;;;;;;;;;
2023/10/07 16:17:41;;;;;;;;;;;;;;;17.33;73.79;98612.98;225353;1282;138410;-79
2023/10/07 16:24:39;;;;;;;;;;;;;;;;;;;;;
2023/10/07 16:30:59;;;;;;;;;;;;;;;;;;;;;
2023/10/07 16:44:00;;;;;;;4.40;2.80;;;;;;;17.23;73.64;98665.10;224662;1280;22552;-78
2023/10/07 16:50:08;;;;;;;;;;;;;;;;;;;;;
2023/10/07 16:56:47;;;;;;;;;;;;;;;;;;;;;
2023/10/07 17:03:44;;;;;;;5.80;3.30;;;;;;;16.82;74.65;98658.02;224642;1289;138394;-78
2023/10/07 17:09:52;;;;;;;;;;;;;;;;;;;;;
2023/10/07 17:15:32;;;;;;;;;;;;;;;;;;;;;
2023/10/07 17:21:38;;;;;;;;;;;;;;;;;;;;;
2023/10/07 17:27:41;;;;;;;;;;;;;;;;;;;;;
2023/10/07 17:34:29;;;;;;;;;;;;;;;;;;;;;
2023/10/07 17:41:23;;;;;;;;;;;;;;;;;;;;;
2023/10/07 17:47:46;;;;;;;10.40;4.50;;;;;;;16.82;73.45;98670.95;225161;1283;138618;-77
2023/10/07 17:54:21;;;;;;;6.00;3.50;;;;;;;16.68;73.63;98677.91;225351;1282;138600;-77
2023/10/07 18:01:21;;;;;;;;;;;;;;;;;;;;;
2023/10/07 18:16:14;;;;;;;4.90;3.00;;;;;;;16.16;76.10;98680.13;223133;1289;138813;-76
2023/10/07 18:22:49;;;;;;;;;;;;;;;;;;;;;
2023/10/07 18:29:53;;;;;;;;;;;;;;;;;;;;;
2023/10/07 18:42:48;;;;;;;;;;;;;;;;;;;;;
2023/10/07 18:48:44;;;;;;;5.00;3.70;;;;;;;15.73;78.20;98655.30;225434;1279;138296;-78
2023/10/07 18:54:15;;;;;;;5.40;3.90;;;;;;;15.80;78.56;98648.45;225451;1280;139259;-77
2023/10/07 19:00:09;;;;;;;4.80;3.20;;;;;;;15.90;78.41;98637.80;225365;1282;138267;-78
2023/10/07 19:05:27;;;;;;;4.40;3.50;;;;;;;16.05;78.08;98629.40;225364;1280;138522;-78
2023/10/07 19:11:13;;;;;;;;;;;;;;;;;;;;;
2023/10/07 19:17:45;;;;;;;;;;;;;;;;;;;;;
2023/10/07 19:23:12;;;;;;;4.30;3.00;;;;;;;16.47;77.01;98624.39;224628;1288;138623;-78
2023/10/07 19:29:11;;;;;;;;;;;;;;;;;;;;;
2023/10/07 19:34:46;;;;;;;5.30;3.20;;;;;;;16.63;76.57;98619.34;224537;1288;138726;-79
2023/10/07 19:40:28;;;;;;;5.40;3.00;;;;;;;16.69;76.35;98614.85;224847;1288;138716;-78
2023/10/07 19:46:06;;;;;;;5.20;3.10;;;;;;;16.73;75.95;98613.42;224802;1283;138459;-78
2023/10/07 19:51:52;;;;;;;5.60;3.10;;;;;;;16.77;75.89;98614.46;224820;1288;138778;-77
2023/10/07 20:03:31;;;;;;;7.80;3.00;;;;;;;16.84;75.42;98610.79;225038;1283;138568;-76
2023/10/07 20:09:11;;;;;;;;;;;;;;;;;;;;;
2023/10/07 20:14:47;;;;;;;6.00;2.90;;;;;;;16.97;75.04;98602.21;225483;1275;138458;-78
2023/10/07 20:20:58;;;;;;;4.00;2.50;;;;;;;17.06;74.78;98602.46;225455;1282;138998;-77
2023/10/07 20:32:58;;;;;;;6.20;3.10;;;;;;;17.18;74.72;98588.17;224943;1286;139091;-77
2023/10/07 20:38:20;;;;;;;5.30;2.90;;;;;;;17.24;74.48;98578.23;225074;1286;22554;-78
2023/10/07 20:43:47;;;;;;;3.80;2.50;;;;;;;17.31;74.11;98574.12;225136;1286;22545;-77
2023/10/07 20:49:16;;;;;;;4.20;2.60;;;;;;;17.35;74.10;98559.34;224986;1286;137730;-77
2023/10/07 20:55:01;;;;;;;4.00;2.50;;;;;;;17.32;73.75;98547.20;225085;1283;138605;-78
2023/10/07 21:00:37;;;;;;;5.80;2.30;;;;;;;17.28;73.93;98546.65;225342;1283;138502;-78
2023/10/07 21:06:14;;;;;;;6.60;2.60;;;;;;;17.25;74.16;98552.83;225372;1280;138347;-78
2023/10/07 21:12:20;;;;;;;;;;;;;;;;;;;;;
2023/10/07 21:25:41;;;;;;;3.70;2.40;;;;;;;17.32;73.76;98533.39;225247;1283;138464;-78
2023/10/07 21:32:08;;;;;;;6.20;2.70;;;;;;;17.33;73.67;98530.14;225347;1283;138105;-78
2023/10/07 21:38:37;;;;;;;;;;;;;;;;;;;;;
2023/10/07 21:45:17;;;;;;;;;;;;;;;;;;;;;
2023/10/07 21:52:00;;;;;;;;;;;;;;;;;;;;;
2023/10/07 21:58:04;;;;;;;4.70;2.80;;;;;;;17.21;73.69;98529.90;225482;1283;138485;-78
2023/10/07 22:10:09;;;;;;;6.40;3.90;;;;;;;17.07;73.79;98509.96;225468;1283;138436;-78
2023/10/07 22:15:51;;;;;;;5.10;3.30;;;;;;;17.01;73.87;98496.48;225388;1283;138542;-77
2023/10/07 22:22:07;;;;;;;;;;;;;;;;;;;;;
2023/10/07 22:28:09;;;;;;;;;;;;;;;;;;;;;
2023/10/07 22:34:40;;;;;;;5.50;3.00;;;;;;;16.85;74.13;98490.68;225362;1282;138482;-77
2023/10/07 22:53:45;;;;;;;;;;;;;;;;;;;;;
2023/10/07 23:00:18;;;;;;;;;;;;;;;;;;;;;
2023/10/07 23:05:49;;;;;;;4.10;2.90;;;;;;;16.97;73.84;98485.31;225439;1283;138327;-77
2023/10/07 23:11:48;;;;;;;6.20;2.90;;;;;;;17.05;73.61;98487.89;225468;1282;138572;-77
2023/10/07 23:17:40;;;;;;;;;;;;;;;;;;;;;
2023/10/07 23:23:11;;;;;;;4.70;2.60;;;;;;;17.19;73.30;98483.26;225534;1283;138420;-77
2023/10/07 23:28:37;;;;;;;6.20;2.60;;;;;;;17.23;73.00;98481.38;225421;1264;138473;-78
2023/10/07 23:47:36;;;;;;;7.30;2.80;;;;;;;17.32;72.73;98469.98;225449;1283;138489;-78
2023/10/07 23:53:46;;;;;;;4.60;2.70;;;;;;;17.37;72.59;98475.34;225539;1265;138948;-78
2023/10/07 23:59:32;;;;;;;5.90;2.90;;;;;;;17.39;72.34;98491.31;225422;1283;138558;-77
